Aérodrome :
LOGIN :

S'inscrire | Disclaimer

   EN    FR    IT 

 










Légende :    VFR   VFR Marginal   IFR   IFR Intensif   IFR Très Intensif
Visi : 
Plafond : 
>= 8 km
>= 3000ft
5 à 8 km
1000 à 3000 ft
1500m à 5 km
500 à 1000 ft
800 à 1500m
200 à 500 ft
< 800m
< 200 ft
Symboles :   Orages  Brouillard  Fortes neiges  Fortes précipitations  Vent > 20 kt
SIGMETs :   Divers  Orages  Givrage  Turbulence  Onde Orograph.  Cendres Volcan.







- Altitude de l'aérodrome : 443 ft
- Code IATA : SQQ


EYSA - Siauliai

DERNIER METAR :
  • 170420Z 27012KT 9999 -SHRA SCT039CB BKN084 OVC110 08/05 Q1003 BLU NOSIG

METARs EXPIRÉS :
  • 170350Z 27010KT 9999 SCT025CB BKN057 BKN099 08/05 Q1003 BLU BECMG BKN023 WHT
  • 170320Z 27011KT 9999 VCSH FEW023CB BKN031 BKN120 08/05 Q1003 BLU BECMG BKN023 WHT
  • 170250Z 27013KT CAVOK 08/05 Q1003 BLU NOSIG
  • 170220Z 26011KT CAVOK 08/05 Q1003 BLU NOSIG
  • 170150Z 25009KT CAVOK 08/05 Q1003 BLU NOSIG

TAF TAF EYSA
Valide du 17 à 03h jusqu'au 17 à 12h UTC


170200Z 1703/1712 26010KT 9000 SCT030
TEMPO 1703/1709 SHRA SCT015CB
TEMPO 1709/1712 3000 TSRA BKN015CB
Pas de NOTAMs connus pour ce terrain.



MET'MAP, la Météo Aéronautique d'un coup d'oeil ! - Copyright ORBIFLY Décembre 2007 - Disclaimer

ORBIFLY MET'MAP TEAM :

Programmation & Développement : Alexandra Zaïnal
Conception & Développement : Baudouin d'Aumeries
Co-Programmation & Développement : Marc-Olivier Méhu
Soutien technique & logistique : Manuel Goepfert

Contact : metmap@orbifly.com




SOURCES & CREDITS :

   NOAA